createdAt,value
2023-01-19T00:00:56.796Z,18.50
2023-01-19T00:01:57.666Z,19.90
2023-01-19T00:02:58.597Z,20.00
2023-01-19T00:03:59.405Z,16.80
2023-01-19T00:05:00.227Z,18.80
2023-01-19T00:06:01.126Z,20.60
2023-01-19T00:07:01.960Z,20.00
2023-01-19T00:08:03.247Z,19.00
2023-01-19T00:09:03.672Z,20.20
2023-01-19T00:10:04.513Z,21.50
2023-01-19T00:11:05.374Z,22.70
2023-01-19T00:12:06.234Z,18.90
2023-01-19T00:13:07.188Z,19.70
2023-01-19T00:14:08.046Z,19.50
2023-01-19T00:15:08.890Z,19.40
2023-01-19T00:16:09.754Z,19.20
2023-01-19T00:17:10.632Z,21.30
2023-01-19T00:18:11.472Z,19.90
2023-01-19T00:19:12.351Z,21.50
2023-01-19T00:20:13.304Z,19.30
2023-01-19T00:21:14.165Z,20.00
2023-01-19T00:22:15.018Z,20.20
2023-01-19T00:23:15.883Z,18.90
2023-01-19T00:24:16.757Z,20.20
2023-01-19T00:25:17.566Z,20.10
2023-01-19T00:26:18.443Z,17.90
2023-01-19T00:27:19.299Z,18.70
2023-01-19T00:28:20.164Z,20.30
2023-01-19T00:29:21.024Z,20.20
2023-01-19T00:30:21.880Z,17.70
2023-01-19T00:31:22.778Z,21.00
2023-01-19T00:32:23.613Z,21.30
2023-01-19T00:33:24.570Z,19.80
2023-01-19T00:34:25.424Z,20.10
2023-01-19T00:35:26.290Z,18.90
2023-01-19T00:36:27.134Z,21.00
2023-01-19T00:37:27.991Z,18.40
2023-01-19T00:38:29.067Z,18.00
2023-01-19T00:39:29.444Z,17.80
2023-01-19T00:40:30.261Z,19.80
2023-01-19T00:41:31.116Z,17.50
2023-01-19T00:42:31.972Z,17.80
2023-01-19T00:43:32.847Z,19.80
2023-01-19T00:44:33.697Z,18.10
2023-01-19T00:45:34.638Z,20.60
2023-01-19T00:46:35.427Z,17.40
2023-01-19T00:47:36.300Z,18.80
2023-01-19T00:48:37.155Z,19.20
2023-01-19T00:49:38.114Z,19.10
2023-01-19T00:50:38.962Z,19.00
2023-01-19T00:51:39.826Z,18.40
2023-01-19T00:52:40.676Z,18.30
2023-01-19T00:53:41.541Z,21.10
2023-01-19T00:54:42.408Z,21.50
2023-01-19T00:55:43.239Z,19.30
2023-01-19T00:56:44.112Z,19.50
2023-01-19T00:57:44.955Z,18.00
2023-01-19T00:58:46.067Z,16.30
2023-01-19T00:59:46.421Z,17.60
2023-01-19T01:00:47.356Z,19.30
2023-01-19T01:01:48.232Z,16.40
2023-01-19T01:02:49.200Z,20.20
2023-01-19T01:03:50.019Z,22.50
2023-01-19T01:04:50.875Z,16.50
2023-01-19T01:05:51.736Z,17.50
2023-01-19T01:06:52.605Z,19.10
2023-01-19T01:07:53.475Z,19.00
2023-01-19T01:08:54.355Z,16.90
2023-01-19T01:09:55.227Z,21.20
2023-01-19T01:10:56.019Z,20.40
2023-01-19T01:11:56.893Z,18.10
2023-01-19T01:12:59.012Z,19.10
2023-01-19T01:13:59.067Z,19.10
2023-01-19T01:14:59.081Z,18.00
2023-01-19T01:15:59.938Z,18.80
2023-01-19T01:17:00.885Z,18.70
2023-01-19T01:18:01.691Z,18.60
2023-01-19T01:19:02.561Z,17.90
2023-01-19T01:20:03.416Z,18.30
2023-01-19T01:21:04.288Z,19.30
2023-01-19T01:22:05.150Z,18.10
2023-01-19T01:23:06.009Z,18.10
2023-01-19T01:24:06.863Z,19.30
2023-01-19T01:25:07.738Z,18.80
2023-01-19T01:26:08.513Z,20.20
2023-01-19T01:27:09.369Z,19.00
2023-01-19T01:28:10.229Z,21.50
2023-01-19T01:29:11.558Z,18.70
2023-01-19T01:30:11.925Z,19.70
2023-01-19T01:31:12.859Z,18.00
2023-01-19T01:32:13.681Z,19.10
2023-01-19T01:33:14.599Z,18.60
2023-01-19T01:34:15.562Z,18.30
2023-01-19T01:35:15.915Z,20.30
2023-01-19T01:36:16.767Z,20.40
2023-01-19T01:37:17.621Z,18.30
2023-01-19T01:38:18.528Z,18.90
2023-01-19T01:39:19.558Z,18.50
2023-01-19T01:40:19.928Z,20.60
2023-01-19T01:41:21.969Z,19.00
2023-01-19T01:42:21.318Z,18.70
2023-01-19T01:43:22.170Z,20.00
2023-01-19T01:44:22.998Z,18.20
2023-01-19T01:45:23.858Z,18.60
2023-01-19T01:46:24.714Z,18.10
2023-01-19T01:47:25.569Z,19.00
2023-01-19T01:48:26.446Z,20.00
2023-01-19T01:49:27.288Z,20.60
2023-01-19T01:50:28.152Z,19.80
2023-01-19T01:51:29.011Z,16.30
2023-01-19T01:52:29.896Z,17.50
2023-01-19T01:53:30.741Z,18.00
2023-01-19T01:54:31.606Z,16.80
2023-01-19T01:55:32.478Z,18.30
2023-01-19T01:56:33.264Z,18.80
2023-01-19T01:57:34.144Z,20.20
2023-01-19T01:58:34.978Z,16.70
2023-01-19T01:59:35.847Z,16.20
2023-01-19T02:00:36.700Z,19.50
2023-01-19T02:01:37.654Z,16.80
2023-01-19T02:02:38.492Z,19.00
2023-01-19T02:03:39.314Z,18.90
2023-01-19T02:04:40.119Z,18.70
2023-01-19T02:05:40.976Z,17.00
2023-01-19T02:06:41.511Z,17.50
2023-01-19T02:07:42.368Z,21.20
2023-01-19T02:08:43.229Z,20.20
2023-01-19T02:09:44.136Z,18.10
2023-01-19T02:10:45.013Z,20.20
2023-01-19T02:11:45.847Z,19.80
2023-01-19T02:12:46.701Z,15.70
2023-01-19T02:13:47.560Z,19.60
2023-01-19T02:14:48.554Z,19.80
2023-01-19T02:15:48.943Z,18.80
2023-01-19T02:16:49.846Z,17.80
2023-01-19T02:17:50.681Z,18.10
2023-01-19T02:18:51.563Z,18.50
2023-01-19T02:19:52.553Z,16.70
2023-01-19T02:20:52.921Z,18.10
2023-01-19T02:21:53.771Z,18.70
2023-01-19T02:22:54.619Z,17.90
2023-01-19T02:23:55.473Z,17.10
2023-01-19T02:24:56.342Z,19.20
2023-01-19T02:25:57.222Z,21.60
2023-01-19T02:26:58.000Z,17.80
2023-01-19T02:27:58.867Z,19.10
2023-01-19T02:28:59.721Z,17.70
2023-01-19T02:30:01.047Z,15.90
2023-01-19T02:31:01.507Z,18.10
2023-01-19T02:32:02.354Z,18.60
2023-01-19T02:33:03.562Z,16.20
2023-01-19T02:34:04.148Z,19.60
2023-01-19T02:35:04.939Z,19.80
2023-01-19T02:36:05.796Z,18.50
2023-01-19T02:37:06.707Z,19.20
2023-01-19T02:38:07.527Z,18.30
2023-01-19T02:39:08.391Z,17.40
2023-01-19T02:40:09.546Z,17.20
2023-01-19T02:41:09.938Z,16.20
2023-01-19T02:42:10.779Z,17.90
2023-01-19T02:43:11.642Z,17.40
2023-01-19T02:44:12.486Z,20.10
2023-01-19T02:45:13.351Z,17.70
2023-01-19T02:46:14.230Z,19.30
2023-01-19T02:47:15.066Z,17.60
2023-01-19T02:48:15.922Z,19.50
2023-01-19T02:49:16.808Z,20.60
2023-01-19T02:50:18.040Z,17.70
2023-01-19T02:51:18.399Z,23.10
2023-01-19T02:52:19.264Z,16.80
2023-01-19T02:53:20.116Z,18.50
2023-01-19T02:54:20.971Z,16.60
2023-01-19T02:55:21.837Z,19.20
2023-01-19T02:56:22.708Z,18.50
2023-01-19T02:57:23.489Z,18.20
2023-01-19T02:58:24.341Z,19.40
2023-01-19T02:59:25.198Z,16.80
2023-01-19T03:00:26.063Z,17.90
2023-01-19T03:01:27.156Z,18.70
2023-01-19T03:02:27.549Z,18.30
2023-01-19T03:03:28.352Z,17.80
2023-01-19T03:04:29.221Z,16.80
2023-01-19T03:05:30.064Z,17.60
2023-01-19T03:06:30.919Z,19.40
2023-01-19T03:07:31.780Z,18.70
2023-01-19T03:08:32.634Z,17.10
2023-01-19T03:09:33.490Z,18.90
2023-01-19T03:10:34.375Z,16.70
2023-01-19T03:11:35.235Z,17.90
2023-01-19T03:12:36.028Z,16.60
2023-01-19T03:13:36.878Z,18.20
2023-01-19T03:14:37.734Z,15.40
2023-01-19T03:15:39.112Z,16.50
2023-01-19T03:16:39.501Z,16.40
2023-01-19T03:17:40.330Z,17.50
2023-01-19T03:18:41.174Z,18.40
2023-01-19T03:19:42.079Z,15.60
2023-01-19T03:20:42.923Z,16.00
2023-01-19T03:21:43.791Z,17.10
2023-01-19T03:22:44.632Z,15.40
2023-01-19T03:23:45.501Z,17.10
2023-01-19T03:24:46.347Z,14.70
2023-01-19T03:25:47.537Z,17.30
2023-01-19T03:26:47.919Z,16.80
2023-01-19T03:27:48.731Z,18.00
2023-01-19T03:28:49.590Z,17.90
2023-01-19T03:29:50.440Z,14.70
2023-01-19T03:30:51.327Z,15.90
2023-01-19T03:31:52.164Z,17.60
2023-01-19T03:32:53.011Z,16.70
2023-01-19T03:33:53.880Z,16.30
2023-01-19T03:34:54.738Z,17.20
2023-01-19T03:35:56.032Z,18.30
2023-01-19T03:36:56.389Z,16.60
2023-01-19T03:37:57.237Z,17.50
2023-01-19T03:38:58.101Z,18.50
2023-01-19T03:39:58.963Z,16.00
2023-01-19T03:41:00.034Z,18.00
2023-01-19T03:42:00.408Z,15.30
2023-01-19T03:43:01.777Z,15.60
2023-01-19T03:44:01.851Z,19.00
2023-01-19T03:45:02.707Z,17.30
2023-01-19T03:46:04.118Z,17.00
2023-01-19T03:47:04.471Z,15.30
2023-01-19T03:48:05.344Z,17.30
2023-01-19T03:49:06.197Z,15.40
2023-01-19T03:50:07.086Z,16.80
2023-01-19T03:51:07.917Z,17.20
2023-01-19T03:52:08.808Z,14.90
2023-01-19T03:53:09.669Z,16.00
2023-01-19T03:54:10.519Z,14.80
2023-01-19T03:55:11.383Z,19.00
2023-01-19T03:56:12.531Z,17.30
2023-01-19T03:57:12.909Z,16.60
2023-01-19T03:58:13.859Z,17.50
2023-01-19T03:59:14.692Z,16.90
2023-01-19T04:00:15.565Z,17.10
2023-01-19T04:01:16.648Z,16.40
2023-01-19T04:02:17.155Z,15.00
2023-01-19T04:03:18.007Z,14.50
2023-01-19T04:04:18.857Z,17.00
2023-01-19T04:05:19.735Z,16.70
2023-01-19T04:06:21.045Z,15.50
2023-01-19T04:07:21.385Z,16.10
2023-01-19T04:08:22.263Z,17.10
2023-01-19T04:09:23.122Z,16.90
2023-01-19T04:10:24.025Z,18.10
2023-01-19T04:11:24.870Z,13.80
2023-01-19T04:12:25.739Z,16.60
2023-01-19T04:13:26.516Z,16.60
2023-01-19T04:14:27.369Z,18.10
2023-01-19T04:15:28.227Z,14.90
2023-01-19T04:16:29.105Z,16.60
2023-01-19T04:17:29.955Z,17.00
2023-01-19T04:18:32.896Z,16.00
2023-01-19T04:19:31.517Z,18.00
2023-01-19T04:20:32.391Z,16.80
2023-01-19T04:21:33.526Z,15.90
2023-01-19T04:22:33.886Z,16.50
2023-01-19T04:23:34.743Z,17.80
2023-01-19T04:24:35.603Z,17.70
2023-01-19T04:25:38.129Z,16.80
2023-01-19T04:26:37.525Z,14.80
2023-01-19T04:27:37.915Z,18.40
2023-01-19T04:28:38.722Z,15.10
2023-01-19T04:29:39.561Z,15.20
2023-01-19T04:30:40.420Z,14.20
2023-01-19T04:31:41.308Z,19.40
2023-01-19T04:32:42.146Z,14.60
2023-01-19T04:33:42.996Z,17.10
2023-01-19T04:34:43.845Z,14.40
2023-01-19T04:35:44.726Z,15.90
2023-01-19T04:36:46.025Z,16.00
2023-01-19T04:37:46.387Z,15.40
2023-01-19T04:38:47.250Z,15.20
2023-01-19T04:39:48.123Z,16.80
2023-01-19T04:40:48.968Z,16.40
2023-01-19T04:41:49.829Z,16.00
2023-01-19T04:42:50.702Z,18.30
2023-01-19T04:43:51.507Z,17.80
2023-01-19T04:44:52.395Z,18.40
2023-01-19T04:45:53.264Z,14.20
2023-01-19T04:46:54.146Z,17.80
2023-01-19T04:47:54.998Z,15.90
2023-01-19T04:48:55.853Z,16.50
2023-01-19T04:49:56.705Z,16.80
2023-01-19T04:50:57.576Z,16.30
2023-01-19T04:51:58.517Z,18.90
2023-01-19T04:52:59.816Z,19.00
2023-01-19T04:54:00.299Z,16.80
2023-01-19T04:55:01.120Z,21.30
2023-01-19T04:56:01.964Z,22.10
2023-01-19T04:57:02.827Z,21.80
2023-01-19T04:58:03.699Z,22.20
2023-01-19T04:59:04.541Z,23.80
2023-01-19T05:00:05.391Z,24.80
2023-01-19T05:01:06.293Z,27.10
2023-01-19T05:02:07.151Z,30.90
2023-01-19T05:03:08.033Z,33.40
2023-01-19T05:04:08.908Z,35.30
2023-01-19T05:05:09.766Z,40.00
2023-01-19T05:06:10.646Z,32.00
2023-01-19T05:07:11.521Z,32.10
2023-01-19T05:08:12.371Z,34.70
2023-01-19T05:09:13.225Z,40.10
2023-01-19T05:10:14.078Z,33.50
2023-01-19T05:11:14.939Z,41.50
2023-01-19T05:12:16.027Z,40.20
2023-01-19T05:13:16.404Z,37.40
2023-01-19T05:14:17.210Z,42.50
2023-01-19T05:15:18.068Z,37.50
2023-01-19T05:16:18.978Z,40.70
2023-01-19T05:17:19.797Z,45.10
2023-01-19T05:18:20.654Z,40.50
2023-01-19T05:19:21.521Z,42.60
2023-01-19T05:20:22.374Z,50.40
2023-01-19T05:21:23.256Z,46.40
2023-01-19T05:22:24.104Z,43.10
2023-01-19T05:23:24.965Z,45.10
2023-01-19T05:24:25.815Z,46.70
2023-01-19T05:25:26.673Z,42.80
2023-01-19T05:26:27.544Z,41.50
2023-01-19T05:27:28.517Z,45.20
2023-01-19T05:28:29.385Z,47.10
2023-01-19T05:29:30.329Z,60.10
2023-01-19T05:30:31.170Z,54.40
2023-01-19T05:31:32.139Z,58.20
2023-01-19T05:32:33.027Z,73.70
2023-01-19T05:33:33.880Z,66.00
2023-01-19T05:34:34.734Z,66.80
2023-01-19T05:35:36.586Z,67.10
2023-01-19T05:36:36.471Z,63.90
2023-01-19T05:37:37.329Z,65.40
2023-01-19T05:38:38.188Z,55.00
2023-01-19T05:39:39.042Z,45.60
2023-01-19T05:40:39.915Z,48.40
2023-01-19T05:41:40.778Z,58.40
2023-01-19T05:42:42.013Z,60.60
2023-01-19T05:43:42.378Z,58.10
2023-01-19T05:44:43.186Z,55.60
2023-01-19T05:45:44.065Z,73.30
2023-01-19T05:46:44.928Z,56.70
2023-01-19T05:47:46.016Z,53.50
2023-01-19T05:48:46.377Z,64.10
2023-01-19T05:49:47.237Z,61.60
2023-01-19T05:50:48.100Z,53.50
2023-01-19T05:51:48.970Z,50.00
2023-01-19T05:52:50.005Z,47.60
2023-01-19T05:53:50.362Z,51.40
2023-01-19T05:54:51.219Z,58.40
2023-01-19T05:55:52.070Z,53.00
2023-01-19T05:56:52.930Z,56.10
2023-01-19T05:57:54.005Z,49.50
2023-01-19T05:58:54.387Z,58.60
2023-01-19T05:59:55.223Z,58.80
2023-01-19T06:00:56.120Z,42.00
2023-01-19T06:01:56.956Z,48.30
2023-01-19T06:02:57.869Z,52.20
2023-01-19T06:03:58.731Z,48.60
2023-01-19T06:04:59.588Z,51.40
2023-01-19T06:06:00.435Z,53.80
2023-01-19T06:07:01.309Z,57.30
2023-01-19T06:08:02.154Z,55.00
2023-01-19T06:09:03.013Z,53.80
2023-01-19T06:10:03.857Z,56.70
2023-01-19T06:11:04.713Z,55.80
2023-01-19T06:12:05.561Z,52.00
2023-01-19T06:13:06.465Z,50.30
2023-01-19T06:14:07.332Z,41.70
2023-01-19T06:15:08.143Z,60.30
2023-01-19T06:16:09.052Z,53.60
2023-01-19T06:17:09.858Z,51.00
2023-01-19T06:18:10.719Z,50.00
2023-01-19T06:19:11.583Z,62.40
2023-01-19T06:20:12.430Z,54.50
2023-01-19T06:21:13.286Z,54.50
2023-01-19T06:22:14.166Z,58.90
2023-01-19T06:23:15.500Z,54.40
2023-01-19T06:24:15.891Z,41.40
2023-01-19T06:25:16.715Z,45.80
2023-01-19T06:26:17.568Z,53.20
2023-01-19T06:27:18.422Z,56.10
2023-01-19T06:28:19.286Z,43.30
2023-01-19T06:29:20.160Z,49.70
2023-01-19T06:30:20.966Z,44.60
2023-01-19T06:31:21.891Z,49.00
2023-01-19T06:32:22.721Z,56.50
2023-01-19T06:33:23.583Z,44.20
2023-01-19T06:34:24.439Z,52.60
2023-01-19T06:35:25.294Z,45.30
2023-01-19T06:36:26.177Z,41.60
2023-01-19T06:37:27.056Z,42.80
2023-01-19T06:38:27.898Z,42.60
2023-01-19T06:39:28.787Z,55.70
2023-01-19T06:40:29.610Z,38.80
2023-01-19T06:41:30.464Z,43.70
2023-01-19T06:42:31.329Z,36.70
2023-01-19T06:43:32.178Z,35.60
2023-01-19T06:44:33.053Z,41.10
2023-01-19T06:45:33.901Z,42.90
2023-01-19T06:46:34.714Z,36.90
2023-01-19T06:47:35.559Z,41.10
2023-01-19T06:48:36.546Z,40.70
2023-01-19T06:49:37.397Z,39.30
2023-01-19T06:50:38.251Z,38.20
2023-01-19T06:51:39.125Z,37.30
2023-01-19T06:52:39.995Z,39.00
2023-01-19T06:53:40.994Z,30.50
2023-01-19T06:54:41.367Z,29.40
2023-01-19T06:55:42.221Z,36.80
2023-01-19T06:56:43.092Z,39.30
2023-01-19T06:57:44.001Z,27.70
2023-01-19T06:58:44.863Z,31.60
2023-01-19T06:59:45.740Z,29.80
2023-01-19T07:00:46.619Z,32.00
2023-01-19T07:01:47.535Z,36.20
2023-01-19T07:02:48.389Z,33.90
2023-01-19T07:03:49.219Z,32.00
2023-01-19T07:04:50.101Z,27.50
2023-01-19T07:05:50.933Z,30.00
2023-01-19T07:06:51.787Z,32.70
2023-01-19T07:07:52.665Z,34.90
2023-01-19T07:08:53.989Z,37.40
2023-01-19T07:09:54.453Z,27.70
2023-01-19T07:11:22.212Z,32.70
2023-01-19T07:11:57.011Z,27.50
2023-01-19T07:12:56.872Z,29.40
2023-01-19T07:13:57.526Z,31.30
2023-01-19T07:14:58.380Z,34.90
2023-01-19T07:15:59.164Z,26.40
2023-01-19T07:17:00.077Z,30.40
2023-01-19T07:18:00.907Z,24.80
2023-01-19T07:19:01.933Z,29.30
2023-01-19T07:20:02.310Z,25.90
2023-01-19T07:21:03.165Z,28.90
2023-01-19T07:22:04.059Z,31.10
2023-01-19T07:23:04.957Z,28.80
2023-01-19T07:24:05.986Z,31.50
2023-01-19T07:25:06.349Z,30.60
2023-01-19T07:26:07.196Z,29.30
2023-01-19T07:27:08.113Z,25.20
2023-01-19T07:28:08.945Z,33.20
2023-01-19T07:29:09.988Z,31.80
2023-01-19T07:30:10.368Z,31.10
2023-01-19T07:31:11.275Z,29.80
2023-01-19T07:32:12.104Z,29.40
2023-01-19T07:33:12.965Z,27.90
2023-01-19T07:34:14.485Z,28.50
2023-01-19T07:35:14.342Z,30.40
2023-01-19T07:36:15.211Z,31.20
2023-01-19T07:37:16.099Z,23.20
2023-01-19T07:38:16.956Z,26.80
2023-01-19T07:39:17.794Z,21.90
2023-01-19T07:40:18.648Z,22.70
2023-01-19T07:41:19.503Z,23.70
2023-01-19T07:42:20.355Z,22.30
2023-01-19T07:43:21.212Z,21.80
2023-01-19T07:44:22.091Z,27.30
2023-01-19T07:45:22.942Z,27.30
2023-01-19T07:46:23.769Z,21.00
2023-01-19T07:47:24.607Z,21.30
2023-01-19T07:48:25.468Z,21.70
2023-01-19T07:49:26.331Z,25.60
2023-01-19T07:50:27.181Z,24.90
2023-01-19T07:51:28.058Z,26.10
2023-01-19T07:52:28.887Z,19.30
2023-01-19T07:53:29.793Z,27.70
2023-01-19T07:54:30.630Z,28.40
2023-01-19T07:55:31.552Z,21.50
2023-01-19T07:56:33.648Z,29.30
2023-01-19T07:57:33.074Z,23.90
2023-01-19T07:58:33.926Z,27.60
2023-01-19T07:59:34.791Z,27.70
2023-01-19T08:00:35.680Z,29.30
2023-01-19T08:01:36.531Z,29.80
2023-01-19T08:02:37.374Z,28.10
2023-01-19T08:03:38.233Z,31.80
2023-01-19T08:04:39.618Z,26.60
2023-01-19T08:05:39.908Z,28.30
2023-01-19T08:06:40.761Z,23.30
2023-01-19T08:07:41.617Z,37.50
2023-01-19T08:08:42.494Z,30.90
2023-01-19T08:09:43.486Z,29.70
2023-01-19T08:10:43.835Z,27.20
2023-01-19T08:11:44.686Z,31.70
2023-01-19T08:12:45.540Z,33.00
2023-01-19T08:13:46.404Z,32.60
2023-01-19T08:14:47.492Z,31.70
2023-01-19T08:15:47.891Z,24.30
2023-01-19T08:16:48.696Z,32.00
2023-01-19T08:17:49.543Z,29.40
2023-01-19T08:18:50.399Z,33.50
2023-01-19T08:19:51.274Z,32.20
2023-01-19T08:20:52.121Z,35.30
2023-01-19T08:21:53.009Z,32.40
2023-01-19T08:22:53.828Z,36.40
2023-01-19T08:23:54.788Z,41.20
2023-01-19T08:24:55.598Z,34.40
2023-01-19T08:25:56.466Z,33.20
2023-01-19T08:26:57.320Z,33.00
2023-01-19T08:27:58.181Z,35.70
2023-01-19T08:28:59.074Z,36.30
2023-01-19T08:29:59.975Z,31.50
2023-01-19T08:31:11.135Z,30.20
2023-01-19T08:32:02.730Z,31.40
2023-01-19T08:33:02.573Z,35.30
2023-01-19T08:34:02.691Z,34.40
2023-01-19T08:35:03.977Z,33.70
2023-01-19T08:36:04.331Z,35.30
2023-01-19T08:37:05.186Z,37.00
2023-01-19T08:38:06.039Z,32.20
2023-01-19T08:39:06.917Z,35.50
2023-01-19T08:40:07.764Z,30.80
2023-01-19T08:41:08.619Z,30.90
2023-01-19T08:42:09.499Z,32.40
2023-01-19T08:43:10.349Z,36.00
2023-01-19T08:44:11.224Z,32.90
2023-01-19T08:45:12.481Z,37.80
2023-01-19T08:46:12.920Z,36.00
2023-01-19T08:47:13.749Z,35.90
2023-01-19T08:48:14.593Z,37.70
2023-01-19T08:49:15.483Z,41.90
2023-01-19T08:50:16.474Z,32.60
2023-01-19T08:51:16.858Z,28.10
2023-01-19T08:52:17.687Z,34.30
2023-01-19T08:53:18.534Z,35.60
2023-01-19T08:54:19.406Z,34.50
2023-01-19T08:55:20.468Z,31.70
2023-01-19T08:56:20.978Z,34.20
2023-01-19T08:57:21.759Z,39.80
2023-01-19T08:58:22.616Z,31.70
2023-01-19T08:59:23.476Z,32.60
2023-01-19T09:00:24.340Z,31.80
2023-01-19T09:01:25.370Z,34.80
2023-01-19T09:02:25.992Z,28.40
2023-01-19T09:03:26.491Z,33.50
2023-01-19T09:04:27.314Z,32.00
2023-01-19T09:05:28.187Z,34.50
2023-01-19T09:06:29.029Z,32.00
2023-01-19T09:07:31.521Z,34.60
2023-01-19T09:08:30.686Z,35.20
2023-01-19T09:09:31.555Z,35.50
2023-01-19T09:10:32.470Z,35.80
2023-01-19T09:11:33.349Z,37.50
2023-01-19T09:12:34.188Z,32.30
2023-01-19T09:13:35.054Z,38.40
2023-01-19T09:14:35.895Z,35.00
2023-01-19T09:15:36.992Z,38.60
2023-01-19T09:16:37.421Z,41.50
2023-01-19T09:17:38.251Z,35.10
2023-01-19T09:18:39.121Z,38.50
2023-01-19T09:19:39.975Z,34.40
2023-01-19T09:20:40.851Z,37.20
2023-01-19T09:21:41.716Z,39.20
2023-01-19T09:22:42.602Z,40.50
2023-01-19T09:23:43.419Z,38.90
2023-01-19T09:24:44.326Z,36.80
2023-01-19T09:25:45.473Z,39.00
2023-01-19T09:26:45.829Z,34.80
2023-01-19T09:27:46.779Z,43.30
2023-01-19T09:28:47.565Z,32.50
2023-01-19T09:29:48.425Z,38.60
2023-01-19T09:30:49.369Z,35.60
2023-01-19T09:31:50.249Z,38.80
2023-01-19T09:32:51.096Z,44.60
2023-01-19T09:33:51.960Z,40.70
2023-01-19T09:34:52.809Z,37.50
2023-01-19T09:35:53.972Z,40.40
2023-01-19T09:36:54.347Z,37.20
2023-01-19T09:37:55.200Z,45.70
2023-01-19T09:38:56.068Z,45.80
2023-01-19T09:39:57.054Z,40.10
2023-01-19T09:40:57.960Z,40.80
2023-01-19T09:41:58.825Z,45.40
2023-01-19T09:42:59.732Z,44.80
2023-01-19T09:44:00.589Z,46.50
2023-01-19T09:45:01.472Z,47.90
2023-01-19T09:46:02.310Z,46.80
2023-01-19T09:47:03.207Z,41.60
2023-01-19T09:48:03.987Z,42.80
2023-01-19T09:49:04.929Z,40.10
2023-01-19T09:50:05.436Z,41.70
2023-01-19T09:51:06.459Z,51.30
2023-01-19T09:52:06.823Z,62.10
2023-01-19T09:53:07.672Z,69.60
2023-01-19T09:54:08.622Z,77.10
2023-01-19T09:55:09.439Z,94.30
2023-01-19T09:56:10.462Z,80.40
2023-01-19T09:57:10.816Z,89.30
2023-01-19T09:58:11.670Z,90.70
2023-01-19T09:59:12.534Z,97.30
2023-01-19T10:00:13.382Z,88.40
2023-01-19T10:01:14.615Z,112.50
2023-01-19T10:02:14.947Z,113.30
2023-01-19T10:03:15.789Z,134.40
2023-01-19T10:04:16.600Z,127.20
2023-01-19T10:05:17.481Z,116.80
2023-01-19T10:06:18.456Z,148.30
2023-01-19T10:07:19.310Z,158.70
2023-01-19T10:08:20.172Z,180.80
2023-01-19T10:09:21.021Z,188.00
2023-01-19T10:10:21.910Z,193.80
2023-01-19T10:11:22.973Z,210.50
2023-01-19T10:12:23.319Z,215.40
2023-01-19T10:13:24.175Z,215.30
2023-01-19T10:14:25.022Z,195.70
2023-01-19T10:15:25.886Z,172.00
2023-01-19T10:16:27.025Z,198.50
2023-01-19T10:17:27.468Z,174.90
2023-01-19T10:18:28.273Z,197.90
2023-01-19T10:19:29.121Z,243.80
2023-01-19T10:20:29.976Z,229.80
2023-01-19T10:21:30.959Z,135.80
2023-01-19T10:22:31.858Z,0.90
2023-01-19T10:23:32.683Z,3.10
2023-01-19T10:24:33.529Z,0.30
2023-01-19T10:25:34.463Z,0.30
2023-01-19T10:26:35.458Z,44.50
2023-01-19T10:27:35.859Z,296.90
2023-01-19T10:28:36.715Z,404.00
2023-01-19T10:29:37.562Z,1326.50
2023-01-19T10:30:38.429Z,677.60
2023-01-19T10:31:39.427Z,343.90
2023-01-19T10:32:39.903Z,90.60
2023-01-19T10:33:40.725Z,131.00
2023-01-19T10:34:41.583Z,314.40
2023-01-19T10:35:42.444Z,336.60
2023-01-19T10:36:43.453Z,601.40
2023-01-19T10:37:43.831Z,329.40
2023-01-19T10:38:44.670Z,312.30
2023-01-19T10:39:45.554Z,254.80
2023-01-19T10:40:46.455Z,299.10
2023-01-19T10:41:47.481Z,239.10
2023-01-19T10:42:47.864Z,253.10
2023-01-19T10:43:48.761Z,378.50
2023-01-19T10:44:49.639Z,223.10
2023-01-19T10:45:50.593Z,288.10
2023-01-19T10:46:51.450Z,270.90
2023-01-19T10:47:52.006Z,224.00
2023-01-19T10:48:52.827Z,340.00
2023-01-19T10:49:53.677Z,265.00
2023-01-19T10:50:54.618Z,247.60
2023-01-19T10:51:55.470Z,215.70
2023-01-19T10:52:56.326Z,248.90
2023-01-19T10:53:57.149Z,215.00
2023-01-19T10:54:58.016Z,247.00
2023-01-19T10:55:58.881Z,233.70
2023-01-19T10:56:59.801Z,274.80
2023-01-19T10:58:00.589Z,237.10
2023-01-19T10:59:01.449Z,589.10
2023-01-19T11:00:02.299Z,249.00
2023-01-19T11:01:03.235Z,281.70
2023-01-19T11:02:04.284Z,328.10
2023-01-19T11:03:05.316Z,298.80
2023-01-19T11:04:05.481Z,286.60
2023-01-19T11:05:06.340Z,296.20
2023-01-19T11:06:07.229Z,247.60
2023-01-19T11:07:08.447Z,245.20
2023-01-19T11:08:08.800Z,271.00
2023-01-19T11:09:09.666Z,263.10
2023-01-19T11:10:10.573Z,261.70
2023-01-19T11:11:11.447Z,253.40
2023-01-19T11:12:12.295Z,236.80
2023-01-19T11:13:13.161Z,233.00
2023-01-19T11:14:14.019Z,263.00
2023-01-19T11:15:14.862Z,271.50
2023-01-19T11:16:15.794Z,241.30
2023-01-19T11:17:16.647Z,252.40
2023-01-19T11:18:17.512Z,248.40
2023-01-19T11:19:18.313Z,335.30
2023-01-19T11:20:19.160Z,275.30
2023-01-19T11:21:20.027Z,290.80
2023-01-19T11:22:20.898Z,273.20
2023-01-19T11:23:21.779Z,269.90
2023-01-19T11:24:22.645Z,272.90
2023-01-19T11:25:23.507Z,248.60
2023-01-19T11:26:24.396Z,267.70
2023-01-19T11:27:25.237Z,251.90
2023-01-19T11:28:26.078Z,271.60
2023-01-19T11:29:26.930Z,252.40
2023-01-19T11:30:27.793Z,251.00
2023-01-19T11:31:28.796Z,231.70
2023-01-19T11:32:29.948Z,249.40
2023-01-19T11:33:30.311Z,252.80
2023-01-19T11:34:31.125Z,247.00
2023-01-19T11:35:31.980Z,243.10
2023-01-19T11:36:32.831Z,275.10
2023-01-19T11:37:33.948Z,255.60
2023-01-19T11:38:34.301Z,268.80
2023-01-19T11:39:35.162Z,229.60
2023-01-19T11:40:36.009Z,242.20
2023-01-19T11:41:36.887Z,234.70
2023-01-19T11:42:37.894Z,210.60
2023-01-19T11:43:48.548Z,245.40
2023-01-19T11:44:40.008Z,195.20
2023-01-19T11:45:39.925Z,233.40
2023-01-19T11:46:40.753Z,230.00
2023-01-19T11:47:41.951Z,230.60
2023-01-19T11:48:42.336Z,250.00
2023-01-19T11:49:43.208Z,311.80
2023-01-19T11:50:44.078Z,295.90
2023-01-19T11:51:44.954Z,295.60
2023-01-19T11:52:45.941Z,253.60
2023-01-19T11:53:46.790Z,245.00
2023-01-19T11:54:47.648Z,258.20
2023-01-19T11:55:48.519Z,280.50
2023-01-19T11:56:49.437Z,246.50
2023-01-19T11:57:50.237Z,268.40
2023-01-19T11:58:51.096Z,232.80
2023-01-19T11:59:51.961Z,244.90
2023-01-19T12:00:52.849Z,264.90
2023-01-19T12:01:53.743Z,231.40
2023-01-19T12:02:54.931Z,210.90
2023-01-19T12:03:55.305Z,237.80
2023-01-19T12:04:56.112Z,255.20
2023-01-19T12:05:56.969Z,266.90
2023-01-19T12:06:57.842Z,275.30
2023-01-19T12:07:59.059Z,201.80
2023-01-19T12:08:59.641Z,248.00
2023-01-19T12:10:00.526Z,246.30
2023-01-19T12:11:01.381Z,258.70
2023-01-19T12:12:02.258Z,287.30
2023-01-19T12:13:03.432Z,244.30
2023-01-19T12:14:03.793Z,247.80
2023-01-19T12:15:04.649Z,237.50
2023-01-19T12:16:05.498Z,248.50
2023-01-19T12:17:06.349Z,232.70
2023-01-19T12:18:07.226Z,247.30
2023-01-19T12:19:08.099Z,244.20
2023-01-19T12:20:08.885Z,248.10
2023-01-19T12:21:09.739Z,218.60
2023-01-19T12:22:10.590Z,252.90
2023-01-19T12:23:11.455Z,245.70
2023-01-19T12:24:12.339Z,223.10
2023-01-19T12:25:13.164Z,262.00
2023-01-19T12:26:14.021Z,238.90
2023-01-19T12:27:14.911Z,254.90
2023-01-19T12:28:15.765Z,263.10
2023-01-19T12:29:16.615Z,244.00
2023-01-19T12:30:17.487Z,263.20
2023-01-19T12:31:18.451Z,258.00
2023-01-19T12:32:19.297Z,268.50
2023-01-19T12:33:20.428Z,279.40
2023-01-19T12:34:20.804Z,236.20
2023-01-19T12:35:21.641Z,219.00
2023-01-19T12:36:22.496Z,256.70
2023-01-19T12:37:23.351Z,231.80
2023-01-19T12:38:24.217Z,217.80
2023-01-19T12:39:25.073Z,245.50
2023-01-19T12:40:25.936Z,253.00
2023-01-19T12:41:26.793Z,289.20
2023-01-19T12:42:27.671Z,295.40
2023-01-19T12:43:28.928Z,266.50
2023-01-19T12:44:29.285Z,227.50
2023-01-19T12:45:30.147Z,249.90
2023-01-19T12:46:31.043Z,252.10
2023-01-19T12:47:31.867Z,261.90
2023-01-19T12:48:32.926Z,251.90
2023-01-19T12:49:33.329Z,243.70
2023-01-19T12:50:34.117Z,257.30
2023-01-19T12:51:35.014Z,271.70
2023-01-19T12:52:35.832Z,248.20
2023-01-19T12:53:36.925Z,245.80
2023-01-19T12:54:37.297Z,247.20
2023-01-19T12:55:38.157Z,245.90
2023-01-19T12:56:39.016Z,236.80
2023-01-19T12:57:39.901Z,230.40
2023-01-19T12:58:40.922Z,249.50